CSAV Lonquen — A8OT2 — position and weather

sailwx.info

Track history (hours):
 
Tides and Currents Weather Stations Pressure Air Temp Water Temp Dewpoint Dewpoint Depression Visibility Wind Speed Wind Dir Waves Ship Positions

CSAV Lonquen

Last reported at 2015-Jul-06 15:33 UTC. Time now 2015-Jul-06 15:37 UTC.
Position N 36°23' E 013°09'.

Length 261 m; draft 12.3 m.

Type: Ship (hazmat cat A). MMSI: 636091501.

Date/timePositionNaut miles runAvg speedWind from/ knotsBaromVisibWave heightAir tempDewpointWater temp
2015-Jul-06 15:33N 36°23' E 013°09'1616.3
2015-Jul-06 14:33N 36°32' E 012°52'1616.2
2015-Jul-06 13:33N 36°41' E 012°35'1716.8
2015-Jul-06 12:33N 36°51' E 012°18'1717.1
2015-Jul-06 11:33N 37°00' E 012°00'1716.6
2015-Jul-06 10:33N 37°08' E 011°42'1716.6
2015-Jul-06 09:33N 37°17' E 011°25'1919.0
2015-Jul-06 08:32N 37°25' E 011°02'1919.2
2015-Jul-06 07:33N 37°30' E 010°39'1717.4
2015-Jul-06 06:33N 37°35' E 010°18'1717.3
2015-Jul-06 05:33N 37°33' E 009°56'1817.7
2015-Jul-06 04:33N 37°27' E 009°35'24417.1
2015-Jul-05 14:16N 37°10' E 004°29'1116.0
2015-Jul-05 13:33N 37°08' E 004°15'1615.9
2015-Jul-05 12:33N 37°06' E 003°55'2216.7
2015-Jul-05 11:13N 37°03' E 003°27'1217.1
2015-Jul-05 10:32N 37°01' E 003°13'1717.5
2015-Jul-05 09:33N 36°58' E 002°51'1717.3
2015-Jul-05 08:33N 36°56' E 002°30'1717.0
2015-Jul-05 07:33N 36°53' E 002°09'1717.3
2015-Jul-05 06:33N 36°51' E 001°48'1717.2
2015-Jul-05 05:34N 36°48' E 001°26'1717.2
2015-Jul-05 04:33N 36°46' E 001°05'1717.2
2015-Jul-05 03:34N 36°43' E 000°44'1716.9
2015-Jul-05 02:34N 36°41' E 000°23'3416.9
2015-Jul-05 00:31N 36°36' W 000°20'1616.4
2015-Jul-04 23:33N 36°33' W 000°39'1616.4
2015-Jul-04 22:33N 36°31' W 000°59'1716.7
2015-Jul-04 21:33N 36°29' W 001°20'1816.1
2015-Jul-04 20:26N 36°26' W 001°42'1416.1
2015-Jul-04 19:32N 36°24' W 001°60'1716.2
2015-Jul-04 18:30N 36°21' W 002°20'1516.2
2015-Jul-04 17:33N 36°19' W 002°39'1716.7
2015-Jul-04 16:31N 36°17' W 003°00'10917.6
2015-Jul-04 10:19N 36°00' W 005°14'1418.1
2015-Jul-04 09:33N 35°56' W 005°30'5917.8
2015-Jul-04 06:14N 35°60' W 006°43'1217.1
2015-Jul-04 05:33N 36°03' W 006°57'2016.7
2015-Jul-04 04:22N 36°08' W 007°20'1416.7
2015-Jul-04 03:33N 36°11' W 007°37'1717.2
2015-Jul-04 02:33N 36°16' W 007°58'1717.2
2015-Jul-04 01:33N 36°20' W 008°18'1717.3
2015-Jul-04 00:33N 36°25' W 008°39'1817.5
2015-Jul-03 23:33N 36°29' W 008°60'1717.1
2015-Jul-03 22:33N 36°36' W 009°19'1717.5
2015-Jul-03 21:33N 36°50' W 009°33'1818.1
2015-Jul-03 20:33N 37°07' W 009°39'1818.1
2015-Jul-03 19:33N 37°25' W 009°44'1818.0
2015-Jul-03 18:33N 37°42' W 009°50'1818.0
2015-Jul-03 17:33N 37°60' W 009°54'1817.6
2015-Jul-03 16:33N 38°17' W 009°59'1717.4
2015-Jul-03 15:32N 38°34' W 010°04'1717.4
2015-Jul-03 14:33N 38°51' W 010°06'1717.0
2015-Jul-03 13:33N 39°08' W 010°06'1817.3
2015-Jul-03 12:31N 39°26' W 010°06'5317.4
2015-Jul-03 09:29N 40°19' W 010°06'62516.0
2015-Jul-01 18:18N 49°42' W 003°41'1213.7
2015-Jul-01 17:26N 49°48' W 003°26'1514.2
2015-Jul-01 16:24N 49°55' W 003°06'1315.3
2015-Jul-01 15:33N 50°01' W 002°47'4117.9
2015-Jul-01 13:16N 50°12' W 001°46'6717.4
2015-Jul-01 09:27N 50°30' W 000°06'1614.7
2015-Jul-01 08:22N 50°34' E 000°18'1214.7
2015-Jul-01 07:33N 50°37' E 000°36'1616.1
2015-Jul-01 06:33N 50°47' E 000°56'2018.2
2015-Jul-01 05:28N 51°00' E 001°20'1718.1
2015-Jul-01 04:33N 51°11' E 001°40'1716.6
2015-Jul-01 03:33N 51°24' E 001°56'1515.0
2015-Jul-01 02:33N 51°21' E 002°20'1515.3
2015-Jul-01 01:33N 51°22' E 002°44'1313.3
2015-Jul-01 00:33N 51°24' E 003°05'1414.3
2015-Jun-30 23:33N 51°25' E 003°28'9 8.7
2015-Jun-30 22:34N 51°25' E 003°42'10 9.6
2015-Jun-30 21:33N 51°25' E 003°58'10 9.5
2015-Jun-30 20:33N 51°23' E 004°13'6 5.6
2015-Jun-30 19:31N 51°18' E 004°16'0 0.0
2015-Jun-30 18:28N 51°18' E 004°16'0 0.0
2015-Jun-30 17:31N 51°18' E 004°16'0 0.0
2015-Jun-30 16:31N 51°18' E 004°16'0 0.0
2015-Jun-30 15:31N 51°18' E 004°16'0 0.0
2015-Jun-30 14:28N 51°18' E 004°16'0 0.0
2015-Jun-30 13:31N 51°18' E 004°16'0 0.0
2015-Jun-30 12:31N 51°18' E 004°16'0 0.0
2015-Jun-30 11:31N 51°18' E 004°16'0 0.0
2015-Jun-30 10:31N 51°18' E 004°16'0 0.0
2015-Jun-30 09:31N 51°18' E 004°16'0 0.0
2015-Jun-30 08:31N 51°18' E 004°16'0 0.0
2015-Jun-30 07:28N 51°18' E 004°16'0 0.0
2015-Jun-30 06:31N 51°18' E 004°16'0 0.0
2015-Jun-30 05:31N 51°18' E 004°16'0 0.0
2015-Jun-30 04:28N 51°18' E 004°16'0 0.0
2015-Jun-30 03:31N 51°18' E 004°16'0 0.0
2015-Jun-30 02:31N 51°18' E 004°16'0 0.0
2015-Jun-30 01:31N 51°18' E 004°16'0 0.0
2015-Jun-30 00:31N 51°18' E 004°16'0 0.0
2015-Jun-29 23:31N 51°18' E 004°16'0 0.0
2015-Jun-29 22:31N 51°18' E 004°16'0 0.0
2015-Jun-29 21:28N 51°18' E 004°16'0 0.0
2015-Jun-29 20:31N 51°18' E 004°16'0 0.0
2015-Jun-29 19:31N 51°18' E 004°16'0 0.0
2015-Jun-29 18:31N 51°18' E 004°16'0 0.0
2015-Jun-29 17:31N 51°18' E 004°16'0 0.0
2015-Jun-29 16:28N 51°18' E 004°16'0 0.0
2015-Jun-29 15:31N 51°18' E 004°16'0 0.0
2015-Jun-29 14:31N 51°18' E 004°16'0 0.0
2015-Jun-29 13:31N 51°18' E 004°16'0 0.0
2015-Jun-29 12:28N 51°18' E 004°16'0 0.0
2015-Jun-29 11:31N 51°18' E 004°16'0 0.0
2015-Jun-29 10:33N 51°18' E 004°16'6 5.6
2015-Jun-29 09:33N 51°23' E 004°13'1010.3
2015-Jun-29 08:33N 51°23' E 003°56'1312.6
2015-Jun-29 07:33N 51°26' E 003°37'1716.9
2015-Jun-29 06:32N 51°24' E 003°09'1111.1
2015-Jun-29 05:33N 51°35' E 003°10'1312.8
2015-Jun-29 04:31N 51°48' E 003°16'1212.9
2015-Jun-29 03:33N 51°60' E 003°20'1413.0
2015-Jun-29 02:30N 52°13' E 003°24'1212.5
2015-Jun-29 01:33N 52°25' E 003°27'1212.2
2015-Jun-29 00:33N 52°37' E 003°31'1212.2
2015-Jun-28 23:33N 52°46' E 003°44'1212.0
2015-Jun-28 22:31N 52°56' E 003°57'1212.2
2015-Jun-28 21:33N 53°04' E 004°12'1212.4
2015-Jun-28 20:33N 53°13' E 004°25'1313.0
2015-Jun-28 19:33N 53°25' E 004°35'1212.5
2015-Jun-28 18:33N 53°32' E 004°52'1212.0
2015-Jun-28 17:33N 53°37' E 005°11'1111.3
2015-Jun-28 16:33N 53°40' E 005°29'1110.8
2015-Jun-28 15:33N 53°44' E 005°46'1010.3
2015-Jun-28 14:33N 53°47' E 006°03'2511.5
2015-Jun-28 12:24N 53°53' E 006°43'2412.4
2015-Jun-28 10:29N 53°58' E 007°22'1111.0
2015-Jun-28 09:31N 53°58' E 007°41'10 9.9
2015-Jun-28 08:33N 53°52' E 007°53'1514.6
2015-Jun-28 07:33N 53°44' E 008°14'1312.9
2015-Jun-28 06:32N 53°36' E 008°31'0 0.0
2015-Jun-28 05:32N 53°36' E 008°31'0 0.0
2015-Jun-28 04:32N 53°36' E 008°31'0 0.0
2015-Jun-28 03:32N 53°36' E 008°31'0 0.0
2015-Jun-28 02:32N 53°36' E 008°31'0 0.0
2015-Jun-28 01:32N 53°36' E 008°31'0 0.0
2015-Jun-28 00:32N 53°36' E 008°31'0 0.0
2015-Jun-27 23:32N 53°36' E 008°31'0 0.0
2015-Jun-27 22:32N 53°36' E 008°31'0 0.0
2015-Jun-27 21:32N 53°36' E 008°31'0 0.0
2015-Jun-27 20:32N 53°36' E 008°31'0 0.0
2015-Jun-27 19:32N 53°36' E 008°31'0 0.0
2015-Jun-27 18:32N 53°36' E 008°31'0 0.0
2015-Jun-27 17:32N 53°36' E 008°31'0 0.0
2015-Jun-27 16:32N 53°36' E 008°31'0 0.0
2015-Jun-27 15:32N 53°36' E 008°31'0 0.0
2015-Jun-27 14:32N 53°36' E 008°31'0 0.0
2015-Jun-27 13:32N 53°36' E 008°31'0 0.0
2015-Jun-27 12:32N 53°36' E 008°31'0 0.0
2015-Jun-27 11:32N 53°36' E 008°31'0 0.0
2015-Jun-27 10:32N 53°36' E 008°31'0 0.0
2015-Jun-27 09:32N 53°36' E 008°31'0 0.0
2015-Jun-27 08:32N 53°36' E 008°31'0 0.0
2015-Jun-27 07:32N 53°36' E 008°31'0 0.0
2015-Jun-27 06:32N 53°36' E 008°31'0 0.0
2015-Jun-27 05:32N 53°36' E 008°31'0 0.0
2015-Jun-27 04:32N 53°36' E 008°31'0 0.0
2015-Jun-27 03:32N 53°36' E 008°31'0 0.1
2015-Jun-27 02:33N 53°36' E 008°31'9 9.4
2015-Jun-27 01:33N 53°42' E 008°19'1615.8
2015-Jun-27 00:33N 53°52' E 007°58'4 2.0
2015-Jun-26 22:32N 53°54' E 007°52'0 0.0
2015-Jun-26 21:29N 53°54' E 007°52'0 0.0
2015-Jun-26 18:32N 53°53' E 007°52'  
Track history (hours):
 
Tides and Currents Weather Stations Pressure Air Temp Water Temp Dewpoint Dewpoint Depression Visibility Wind Speed Wind Dir Waves Ship Positions

CSAV Lonquen

Last reported at 2015-Jul-06 15:33 UTC. Time now 2015-Jul-06 15:37 UTC.
Position N 36°23' E 013°09'.

Length 261 m; draft 12.3 m.

Type: Ship (hazmat cat A). MMSI: 636091501.

Date/timePositionNaut miles runAvg speedWind from/ knotsBaromVisibWave heightAir tempDewpointWater temp
2015-Jul-06 15:33N 36°23' E 013°09'1616.3
2015-Jul-06 14:33N 36°32' E 012°52'1616.2
2015-Jul-06 13:33N 36°41' E 012°35'1716.8
2015-Jul-06 12:33N 36°51' E 012°18'1717.1
2015-Jul-06 11:33N 37°00' E 012°00'1716.6
2015-Jul-06 10:33N 37°08' E 011°42'1716.6
2015-Jul-06 09:33N 37°17' E 011°25'1919.0
2015-Jul-06 08:32N 37°25' E 011°02'1919.2
2015-Jul-06 07:33N 37°30' E 010°39'1717.4
2015-Jul-06 06:33N 37°35' E 010°18'1717.3
2015-Jul-06 05:33N 37°33' E 009°56'1817.7
2015-Jul-06 04:33N 37°27' E 009°35'24417.1
2015-Jul-05 14:16N 37°10' E 004°29'1116.0
2015-Jul-05 13:33N 37°08' E 004°15'1615.9
2015-Jul-05 12:33N 37°06' E 003°55'2216.7
2015-Jul-05 11:13N 37°03' E 003°27'1217.1
2015-Jul-05 10:32N 37°01' E 003°13'1717.5
2015-Jul-05 09:33N 36°58' E 002°51'1717.3
2015-Jul-05 08:33N 36°56' E 002°30'1717.0
2015-Jul-05 07:33N 36°53' E 002°09'1717.3
2015-Jul-05 06:33N 36°51' E 001°48'1717.2
2015-Jul-05 05:34N 36°48' E 001°26'1717.2
2015-Jul-05 04:33N 36°46' E 001°05'1717.2
2015-Jul-05 03:34N 36°43' E 000°44'1716.9
2015-Jul-05 02:34N 36°41' E 000°23'3416.9
2015-Jul-05 00:31N 36°36' W 000°20'1616.4
2015-Jul-04 23:33N 36°33' W 000°39'1616.4
2015-Jul-04 22:33N 36°31' W 000°59'1716.7
2015-Jul-04 21:33N 36°29' W 001°20'1816.1
2015-Jul-04 20:26N 36°26' W 001°42'1416.1
2015-Jul-04 19:32N 36°24' W 001°60'1716.2
2015-Jul-04 18:30N 36°21' W 002°20'1516.2
2015-Jul-04 17:33N 36°19' W 002°39'1716.7
2015-Jul-04 16:31N 36°17' W 003°00'10917.6
2015-Jul-04 10:19N 36°00' W 005°14'1418.1
2015-Jul-04 09:33N 35°56' W 005°30'5917.8
2015-Jul-04 06:14N 35°60' W 006°43'1217.1
2015-Jul-04 05:33N 36°03' W 006°57'2016.7
2015-Jul-04 04:22N 36°08' W 007°20'1416.7
2015-Jul-04 03:33N 36°11' W 007°37'1717.2
2015-Jul-04 02:33N 36°16' W 007°58'1717.2
2015-Jul-04 01:33N 36°20' W 008°18'1717.3
2015-Jul-04 00:33N 36°25' W 008°39'1817.5
2015-Jul-03 23:33N 36°29' W 008°60'1717.1
2015-Jul-03 22:33N 36°36' W 009°19'1717.5
2015-Jul-03 21:33N 36°50' W 009°33'1818.1
2015-Jul-03 20:33N 37°07' W 009°39'1818.1
2015-Jul-03 19:33N 37°25' W 009°44'1818.0
2015-Jul-03 18:33N 37°42' W 009°50'1818.0
2015-Jul-03 17:33N 37°60' W 009°54'1817.6
2015-Jul-03 16:33N 38°17' W 009°59'1717.4
2015-Jul-03 15:32N 38°34' W 010°04'1717.4
2015-Jul-03 14:33N 38°51' W 010°06'1717.0
2015-Jul-03 13:33N 39°08' W 010°06'1817.3
2015-Jul-03 12:31N 39°26' W 010°06'5317.4
2015-Jul-03 09:29N 40°19' W 010°06'62516.0
2015-Jul-01 18:18N 49°42' W 003°41'1213.7
2015-Jul-01 17:26N 49°48' W 003°26'1514.2
2015-Jul-01 16:24N 49°55' W 003°06'1315.3
2015-Jul-01 15:33N 50°01' W 002°47'4117.9
2015-Jul-01 13:16N 50°12' W 001°46'6717.4
2015-Jul-01 09:27N 50°30' W 000°06'1614.7
2015-Jul-01 08:22N 50°34' E 000°18'1214.7
2015-Jul-01 07:33N 50°37' E 000°36'1616.1
2015-Jul-01 06:33N 50°47' E 000°56'2018.2
2015-Jul-01 05:28N 51°00' E 001°20'1718.1
2015-Jul-01 04:33N 51°11' E 001°40'1716.6
2015-Jul-01 03:33N 51°24' E 001°56'1515.0
2015-Jul-01 02:33N 51°21' E 002°20'1515.3
2015-Jul-01 01:33N 51°22' E 002°44'1313.3
2015-Jul-01 00:33N 51°24' E 003°05'1414.3
2015-Jun-30 23:33N 51°25' E 003°28'9 8.7
2015-Jun-30 22:34N 51°25' E 003°42'10 9.6
2015-Jun-30 21:33N 51°25' E 003°58'10 9.5
2015-Jun-30 20:33N 51°23' E 004°13'6 5.6
2015-Jun-30 19:31N 51°18' E 004°16'0 0.0
2015-Jun-30 18:28N 51°18' E 004°16'0 0.0
2015-Jun-30 17:31N 51°18' E 004°16'0 0.0
2015-Jun-30 16:31N 51°18' E 004°16'0 0.0
2015-Jun-30 15:31N 51°18' E 004°16'0 0.0
2015-Jun-30 14:28N 51°18' E 004°16'0 0.0
2015-Jun-30 13:31N 51°18' E 004°16'0 0.0
2015-Jun-30 12:31N 51°18' E 004°16'0 0.0
2015-Jun-30 11:31N 51°18' E 004°16'0 0.0
2015-Jun-30 10:31N 51°18' E 004°16'0 0.0
2015-Jun-30 09:31N 51°18' E 004°16'0 0.0
2015-Jun-30 08:31N 51°18' E 004°16'0 0.0
2015-Jun-30 07:28N 51°18' E 004°16'0 0.0
2015-Jun-30 06:31N 51°18' E 004°16'0 0.0
2015-Jun-30 05:31N 51°18' E 004°16'0 0.0
2015-Jun-30 04:28N 51°18' E 004°16'0 0.0
2015-Jun-30 03:31N 51°18' E 004°16'0 0.0
2015-Jun-30 02:31N 51°18' E 004°16'0 0.0
2015-Jun-30 01:31N 51°18' E 004°16'0 0.0
2015-Jun-30 00:31N 51°18' E 004°16'0 0.0
2015-Jun-29 23:31N 51°18' E 004°16'0 0.0
2015-Jun-29 22:31N 51°18' E 004°16'0 0.0
2015-Jun-29 21:28N 51°18' E 004°16'0 0.0
2015-Jun-29 20:31N 51°18' E 004°16'0 0.0
2015-Jun-29 19:31N 51°18' E 004°16'0 0.0
2015-Jun-29 18:31N 51°18' E 004°16'0 0.0
2015-Jun-29 17:31N 51°18' E 004°16'0 0.0
2015-Jun-29 16:28N 51°18' E 004°16'0 0.0
2015-Jun-29 15:31N 51°18' E 004°16'0 0.0
2015-Jun-29 14:31N 51°18' E 004°16'0 0.0
2015-Jun-29 13:31N 51°18' E 004°16'0 0.0
2015-Jun-29 12:28N 51°18' E 004°16'0 0.0
2015-Jun-29 11:31N 51°18' E 004°16'0 0.0
2015-Jun-29 10:33N 51°18' E 004°16'6 5.6
2015-Jun-29 09:33N 51°23' E 004°13'1010.3
2015-Jun-29 08:33N 51°23' E 003°56'1312.6
2015-Jun-29 07:33N 51°26' E 003°37'1716.9
2015-Jun-29 06:32N 51°24' E 003°09'1111.1
2015-Jun-29 05:33N 51°35' E 003°10'1312.8
2015-Jun-29 04:31N 51°48' E 003°16'1212.9
2015-Jun-29 03:33N 51°60' E 003°20'1413.0
2015-Jun-29 02:30N 52°13' E 003°24'1212.5
2015-Jun-29 01:33N 52°25' E 003°27'1212.2
2015-Jun-29 00:33N 52°37' E 003°31'1212.2
2015-Jun-28 23:33N 52°46' E 003°44'1212.0
2015-Jun-28 22:31N 52°56' E 003°57'1212.2
2015-Jun-28 21:33N 53°04' E 004°12'1212.4
2015-Jun-28 20:33N 53°13' E 004°25'1313.0
2015-Jun-28 19:33N 53°25' E 004°35'1212.5
2015-Jun-28 18:33N 53°32' E 004°52'1212.0
2015-Jun-28 17:33N 53°37' E 005°11'1111.3
2015-Jun-28 16:33N 53°40' E 005°29'1110.8
2015-Jun-28 15:33N 53°44' E 005°46'1010.3
2015-Jun-28 14:33N 53°47' E 006°03'2511.5
2015-Jun-28 12:24N 53°53' E 006°43'2412.4
2015-Jun-28 10:29N 53°58' E 007°22'1111.0
2015-Jun-28 09:31N 53°58' E 007°41'10 9.9
2015-Jun-28 08:33N 53°52' E 007°53'1514.6
2015-Jun-28 07:33N 53°44' E 008°14'1312.9
2015-Jun-28 06:32N 53°36' E 008°31'0 0.0
2015-Jun-28 05:32N 53°36' E 008°31'0 0.0
2015-Jun-28 04:32N 53°36' E 008°31'0 0.0
2015-Jun-28 03:32N 53°36' E 008°31'0 0.0
2015-Jun-28 02:32N 53°36' E 008°31'0 0.0
2015-Jun-28 01:32N 53°36' E 008°31'0 0.0
2015-Jun-28 00:32N 53°36' E 008°31'0 0.0
2015-Jun-27 23:32N 53°36' E 008°31'0 0.0
2015-Jun-27 22:32N 53°36' E 008°31'0 0.0
2015-Jun-27 21:32N 53°36' E 008°31'0 0.0
2015-Jun-27 20:32N 53°36' E 008°31'0 0.0
2015-Jun-27 19:32N 53°36' E 008°31'0 0.0
2015-Jun-27 18:32N 53°36' E 008°31'0 0.0
2015-Jun-27 17:32N 53°36' E 008°31'0 0.0
2015-Jun-27 16:32N 53°36' E 008°31'0 0.0
2015-Jun-27 15:32N 53°36' E 008°31'0 0.0
2015-Jun-27 14:32N 53°36' E 008°31'0 0.0
2015-Jun-27 13:32N 53°36' E 008°31'0 0.0
2015-Jun-27 12:32N 53°36' E 008°31'0 0.0
2015-Jun-27 11:32N 53°36' E 008°31'0 0.0
2015-Jun-27 10:32N 53°36' E 008°31'0 0.0
2015-Jun-27 09:32N 53°36' E 008°31'0 0.0
2015-Jun-27 08:32N 53°36' E 008°31'0 0.0
2015-Jun-27 07:32N 53°36' E 008°31'0 0.0
2015-Jun-27 06:32N 53°36' E 008°31'0 0.0
2015-Jun-27 05:32N 53°36' E 008°31'0 0.0
2015-Jun-27 04:32N 53°36' E 008°31'0 0.0
2015-Jun-27 03:32N 53°36' E 008°31'0 0.1
2015-Jun-27 02:33N 53°36' E 008°31'9 9.4
2015-Jun-27 01:33N 53°42' E 008°19'1615.8
2015-Jun-27 00:33N 53°52' E 007°58'4 2.0
2015-Jun-26 22:32N 53°54' E 007°52'0 0.0
2015-Jun-26 21:29N 53°54' E 007°52'0 0.0
2015-Jun-26 18:32N 53°53' E 007°52'  

Dump ship's entire track history